sensor_id;sensor_type;location;lat;lon;timestamp;temperature;humidity
13561;DHT22;6852;51.686;5.314;2023-03-14T00:01:30;11.60;99.90
13561;DHT22;6852;51.686;5.314;2023-03-14T00:03:56;11.50;99.90
13561;DHT22;6852;51.686;5.314;2023-03-14T00:06:23;11.50;99.90
13561;DHT22;6852;51.686;5.314;2023-03-14T00:08:50;11.40;99.90
13561;DHT22;6852;51.686;5.314;2023-03-14T00:11:20;11.40;99.90
13561;DHT22;6852;51.686;5.314;2023-03-14T00:13:48;11.40;99.90
13561;DHT22;6852;51.686;5.314;2023-03-14T00:16:15;11.40;99.90
13561;DHT22;6852;51.686;5.314;2023-03-14T00:18:42;11.40;99.90
13561;DHT22;6852;51.686;5.314;2023-03-14T00:21:10;11.40;99.90
13561;DHT22;6852;51.686;5.314;2023-03-14T00:23:39;11.40;99.90
13561;DHT22;6852;51.686;5.314;2023-03-14T00:26:16;11.40;99.90
13561;DHT22;6852;51.686;5.314;2023-03-14T00:28:43;11.40;99.90
13561;DHT22;6852;51.686;5.314;2023-03-14T00:31:13;11.50;99.90
13561;DHT22;6852;51.686;5.314;2023-03-14T00:33:40;11.40;99.90
13561;DHT22;6852;51.686;5.314;2023-03-14T00:36:10;11.40;99.90
13561;DHT22;6852;51.686;5.314;2023-03-14T00:38:38;11.50;99.90
13561;DHT22;6852;51.686;5.314;2023-03-14T00:41:07;11.40;99.90
13561;DHT22;6852;51.686;5.314;2023-03-14T00:43:35;11.40;99.90
13561;DHT22;6852;51.686;5.314;2023-03-14T00:46:02;11.40;99.90
13561;DHT22;6852;51.686;5.314;2023-03-14T00:48:29;11.40;99.90
13561;DHT22;6852;51.686;5.314;2023-03-14T00:50:56;11.30;99.90
13561;DHT22;6852;51.686;5.314;2023-03-14T00:53:23;11.30;99.90
13561;DHT22;6852;51.686;5.314;2023-03-14T00:55:50;11.30;99.90
13561;DHT22;6852;51.686;5.314;2023-03-14T00:58:17;11.30;99.90
13561;DHT22;6852;51.686;5.314;2023-03-14T01:00:45;11.20;99.90
13561;DHT22;6852;51.686;5.314;2023-03-14T01:03:13;11.20;99.90
13561;DHT22;6852;51.686;5.314;2023-03-14T01:05:41;11.20;99.90
13561;DHT22;6852;51.686;5.314;2023-03-14T01:08:08;11.10;99.90
13561;DHT22;6852;51.686;5.314;2023-03-14T01:10:38;11.10;99.90
13561;DHT22;6852;51.686;5.314;2023-03-14T01:13:05;11.10;99.90
13561;DHT22;6852;51.686;5.314;2023-03-14T01:15:34;11.10;99.90
13561;DHT22;6852;51.686;5.314;2023-03-14T01:18:01;11.10;99.90
13561;DHT22;6852;51.686;5.314;2023-03-14T01:20:28;11.10;99.90
13561;DHT22;6852;51.686;5.314;2023-03-14T01:22:55;11.10;99.90
13561;DHT22;6852;51.686;5.314;2023-03-14T01:25:22;11.10;99.90
13561;DHT22;6852;51.686;5.314;2023-03-14T01:27:49;11.10;99.90
13561;DHT22;6852;51.686;5.314;2023-03-14T01:30:16;11.10;99.90
13561;DHT22;6852;51.686;5.314;2023-03-14T01:32:43;11.10;99.90
13561;DHT22;6852;51.686;5.314;2023-03-14T01:35:10;11.00;99.90
13561;DHT22;6852;51.686;5.314;2023-03-14T01:37:37;10.80;99.90
13561;DHT22;6852;51.686;5.314;2023-03-14T01:40:04;10.60;99.90
13561;DHT22;6852;51.686;5.314;2023-03-14T01:42:32;10.50;99.90
13561;DHT22;6852;51.686;5.314;2023-03-14T01:45:00;10.40;99.90
13561;DHT22;6852;51.686;5.314;2023-03-14T01:47:28;10.40;99.90
13561;DHT22;6852;51.686;5.314;2023-03-14T01:50:09;10.40;99.90
13561;DHT22;6852;51.686;5.314;2023-03-14T01:52:42;10.50;99.90
13561;DHT22;6852;51.686;5.314;2023-03-14T01:55:20;10.50;99.90
13561;DHT22;6852;51.686;5.314;2023-03-14T01:57:54;10.50;99.90
13561;DHT22;6852;51.686;5.314;2023-03-14T02:00:23;10.50;99.90
13561;DHT22;6852;51.686;5.314;2023-03-14T02:02:59;10.50;99.90
13561;DHT22;6852;51.686;5.314;2023-03-14T02:05:32;10.50;99.90
13561;DHT22;6852;51.686;5.314;2023-03-14T02:08:02;10.50;99.90
13561;DHT22;6852;51.686;5.314;2023-03-14T02:10:35;10.50;99.90
13561;DHT22;6852;51.686;5.314;2023-03-14T02:13:04;10.50;99.90
13561;DHT22;6852;51.686;5.314;2023-03-14T02:15:32;10.50;99.90
13561;DHT22;6852;51.686;5.314;2023-03-14T02:18:01;10.50;99.90
13561;DHT22;6852;51.686;5.314;2023-03-14T02:20:38;10.50;99.90
13561;DHT22;6852;51.686;5.314;2023-03-14T02:23:08;10.50;99.90
13561;DHT22;6852;51.686;5.314;2023-03-14T02:25:51;10.40;99.90
13561;DHT22;6852;51.686;5.314;2023-03-14T02:28:21;10.40;99.90
13561;DHT22;6852;51.686;5.314;2023-03-14T02:30:48;10.40;99.90
13561;DHT22;6852;51.686;5.314;2023-03-14T02:33:19;10.40;99.90
13561;DHT22;6852;51.686;5.314;2023-03-14T02:40:52;10.40;99.90
13561;DHT22;6852;51.686;5.314;2023-03-14T02:43:19;10.40;99.90
13561;DHT22;6852;51.686;5.314;2023-03-14T02:45:47;10.50;99.90
13561;DHT22;6852;51.686;5.314;2023-03-14T02:48:19;10.50;99.90
13561;DHT22;6852;51.686;5.314;2023-03-14T02:50:48;10.50;99.90
13561;DHT22;6852;51.686;5.314;2023-03-14T02:53:20;10.50;99.90
13561;DHT22;6852;51.686;5.314;2023-03-14T02:55:48;10.50;99.90
13561;DHT22;6852;51.686;5.314;2023-03-14T02:58:15;10.50;99.90
13561;DHT22;6852;51.686;5.314;2023-03-14T03:00:42;10.50;99.90
13561;DHT22;6852;51.686;5.314;2023-03-14T03:03:09;10.60;99.90
13561;DHT22;6852;51.686;5.314;2023-03-14T03:05:36;10.60;99.90
13561;DHT22;6852;51.686;5.314;2023-03-14T03:08:04;10.60;99.90
13561;DHT22;6852;51.686;5.314;2023-03-14T03:10:31;10.60;99.90
13561;DHT22;6852;51.686;5.314;2023-03-14T03:12:58;10.60;99.90
13561;DHT22;6852;51.686;5.314;2023-03-14T03:15:25;10.60;99.90
13561;DHT22;6852;51.686;5.314;2023-03-14T03:17:53;10.60;99.90
13561;DHT22;6852;51.686;5.314;2023-03-14T03:20:19;10.50;99.90
13561;DHT22;6852;51.686;5.314;2023-03-14T03:22:46;10.60;99.90
13561;DHT22;6852;51.686;5.314;2023-03-14T03:25:13;10.60;99.90
13561;DHT22;6852;51.686;5.314;2023-03-14T03:27:40;10.50;99.90
13561;DHT22;6852;51.686;5.314;2023-03-14T03:30:08;10.60;99.90
13561;DHT22;6852;51.686;5.314;2023-03-14T03:32:35;10.60;99.90
13561;DHT22;6852;51.686;5.314;2023-03-14T03:35:03;10.60;99.90
13561;DHT22;6852;51.686;5.314;2023-03-14T03:37:34;10.60;99.90
13561;DHT22;6852;51.686;5.314;2023-03-14T03:40:01;10.60;99.90
13561;DHT22;6852;51.686;5.314;2023-03-14T03:42:31;10.60;99.90
13561;DHT22;6852;51.686;5.314;2023-03-14T03:44:58;10.60;99.90
13561;DHT22;6852;51.686;5.314;2023-03-14T03:47:25;10.60;99.90
13561;DHT22;6852;51.686;5.314;2023-03-14T03:49:53;10.60;99.90
13561;DHT22;6852;51.686;5.314;2023-03-14T03:52:19;10.60;99.90
13561;DHT22;6852;51.686;5.314;2023-03-14T03:54:47;10.60;99.90
13561;DHT22;6852;51.686;5.314;2023-03-14T03:57:13;10.60;99.90
13561;DHT22;6852;51.686;5.314;2023-03-14T03:59:40;10.60;99.90
13561;DHT22;6852;51.686;5.314;2023-03-14T04:02:07;10.50;99.90
13561;DHT22;6852;51.686;5.314;2023-03-14T04:04:35;10.50;99.90
13561;DHT22;6852;51.686;5.314;2023-03-14T04:07:02;10.60;99.90
13561;DHT22;6852;51.686;5.314;2023-03-14T04:09:29;10.50;99.90
13561;DHT22;6852;51.686;5.314;2023-03-14T04:11:55;10.50;99.90
13561;DHT22;6852;51.686;5.314;2023-03-14T04:14:22;10.50;99.90
13561;DHT22;6852;51.686;5.314;2023-03-14T04:16:49;10.50;99.90
13561;DHT22;6852;51.686;5.314;2023-03-14T04:19:16;10.60;99.90
13561;DHT22;6852;51.686;5.314;2023-03-14T04:21:43;10.50;99.90
13561;DHT22;6852;51.686;5.314;2023-03-14T04:24:13;10.50;99.90
13561;DHT22;6852;51.686;5.314;2023-03-14T04:26:40;10.50;99.90
13561;DHT22;6852;51.686;5.314;2023-03-14T04:29:07;10.40;99.90
13561;DHT22;6852;51.686;5.314;2023-03-14T04:31:34;10.40;99.90
13561;DHT22;6852;51.686;5.314;2023-03-14T04:34:01;10.40;99.90
13561;DHT22;6852;51.686;5.314;2023-03-14T04:36:28;10.30;99.90
13561;DHT22;6852;51.686;5.314;2023-03-14T04:38:55;10.30;99.90
13561;DHT22;6852;51.686;5.314;2023-03-14T04:41:22;10.20;99.90
13561;DHT22;6852;51.686;5.314;2023-03-14T04:43:49;10.20;99.90
13561;DHT22;6852;51.686;5.314;2023-03-14T04:46:15;10.20;99.90
13561;DHT22;6852;51.686;5.314;2023-03-14T04:48:42;10.20;99.90
13561;DHT22;6852;51.686;5.314;2023-03-14T04:51:09;10.20;99.90
13561;DHT22;6852;51.686;5.314;2023-03-14T04:53:36;10.20;99.90
13561;DHT22;6852;51.686;5.314;2023-03-14T04:56:04;10.20;99.90
13561;DHT22;6852;51.686;5.314;2023-03-14T04:58:31;10.10;99.90
13561;DHT22;6852;51.686;5.314;2023-03-14T05:01:02;10.20;99.90
13561;DHT22;6852;51.686;5.314;2023-03-14T05:03:30;10.10;99.90
13561;DHT22;6852;51.686;5.314;2023-03-14T05:05:57;10.10;99.90
13561;DHT22;6852;51.686;5.314;2023-03-14T05:08:25;10.10;99.90
13561;DHT22;6852;51.686;5.314;2023-03-14T05:10:54;10.10;99.90
13561;DHT22;6852;51.686;5.314;2023-03-14T05:13:21;10.10;99.90
13561;DHT22;6852;51.686;5.314;2023-03-14T05:15:48;10.10;99.90
13561;DHT22;6852;51.686;5.314;2023-03-14T05:18:20;10.10;99.90
13561;DHT22;6852;51.686;5.314;2023-03-14T05:20:50;10.10;99.90
13561;DHT22;6852;51.686;5.314;2023-03-14T05:23:17;10.10;99.90
13561;DHT22;6852;51.686;5.314;2023-03-14T05:25:44;10.10;99.90
13561;DHT22;6852;51.686;5.314;2023-03-14T05:28:11;10.10;99.90
13561;DHT22;6852;51.686;5.314;2023-03-14T05:30:38;10.10;99.90
13561;DHT22;6852;51.686;5.314;2023-03-14T05:33:04;10.00;99.90
13561;DHT22;6852;51.686;5.314;2023-03-14T05:35:31;10.00;99.90
13561;DHT22;6852;51.686;5.314;2023-03-14T05:37:58;9.90;99.90
13561;DHT22;6852;51.686;5.314;2023-03-14T05:40:25;9.90;99.90
13561;DHT22;6852;51.686;5.314;2023-03-14T05:42:52;9.80;99.90
13561;DHT22;6852;51.686;5.314;2023-03-14T05:45:19;9.80;99.90
13561;DHT22;6852;51.686;5.314;2023-03-14T05:47:46;9.80;99.90
13561;DHT22;6852;51.686;5.314;2023-03-14T05:50:13;9.80;99.90
13561;DHT22;6852;51.686;5.314;2023-03-14T05:52:40;9.90;99.90
13561;DHT22;6852;51.686;5.314;2023-03-14T05:55:07;9.80;99.90
13561;DHT22;6852;51.686;5.314;2023-03-14T05:57:34;9.90;99.90
13561;DHT22;6852;51.686;5.314;2023-03-14T06:00:00;9.90;99.90
13561;DHT22;6852;51.686;5.314;2023-03-14T06:02:27;9.90;99.90
13561;DHT22;6852;51.686;5.314;2023-03-14T06:04:54;9.80;99.90
13561;DHT22;6852;51.686;5.314;2023-03-14T06:07:21;9.90;99.90
13561;DHT22;6852;51.686;5.314;2023-03-14T06:09:48;9.90;99.90
13561;DHT22;6852;51.686;5.314;2023-03-14T06:12:14;9.90;99.90
13561;DHT22;6852;51.686;5.314;2023-03-14T06:14:41;9.90;99.90
13561;DHT22;6852;51.686;5.314;2023-03-14T06:17:08;9.90;99.90
13561;DHT22;6852;51.686;5.314;2023-03-14T06:19:35;9.90;99.90
13561;DHT22;6852;51.686;5.314;2023-03-14T06:22:02;9.90;99.90
13561;DHT22;6852;51.686;5.314;2023-03-14T06:24:29;9.90;99.90
13561;DHT22;6852;51.686;5.314;2023-03-14T06:26:55;9.80;99.90
13561;DHT22;6852;51.686;5.314;2023-03-14T06:29:22;9.90;99.90
13561;DHT22;6852;51.686;5.314;2023-03-14T06:31:49;9.80;99.90
13561;DHT22;6852;51.686;5.314;2023-03-14T06:34:16;9.80;99.90
13561;DHT22;6852;51.686;5.314;2023-03-14T06:36:42;9.80;99.90
13561;DHT22;6852;51.686;5.314;2023-03-14T06:39:09;9.80;99.90
13561;DHT22;6852;51.686;5.314;2023-03-14T06:41:36;9.80;99.90
13561;DHT22;6852;51.686;5.314;2023-03-14T06:44:03;9.90;99.90
13561;DHT22;6852;51.686;5.314;2023-03-14T06:46:30;9.80;99.90
13561;DHT22;6852;51.686;5.314;2023-03-14T06:48:57;9.80;99.90
13561;DHT22;6852;51.686;5.314;2023-03-14T06:51:24;9.80;99.90
13561;DHT22;6852;51.686;5.314;2023-03-14T06:53:51;9.80;99.90
13561;DHT22;6852;51.686;5.314;2023-03-14T06:56:18;9.80;99.90
13561;DHT22;6852;51.686;5.314;2023-03-14T06:58:45;9.80;99.90
13561;DHT22;6852;51.686;5.314;2023-03-14T07:01:33;9.80;99.90
13561;DHT22;6852;51.686;5.314;2023-03-14T07:04:02;9.80;99.90
13561;DHT22;6852;51.686;5.314;2023-03-14T07:06:29;9.90;99.90
13561;DHT22;6852;51.686;5.314;2023-03-14T07:08:56;9.40;99.90
13561;DHT22;6852;51.686;5.314;2023-03-14T07:11:23;9.40;99.90
13561;DHT22;6852;51.686;5.314;2023-03-14T07:13:50;9.10;99.90
13561;DHT22;6852;51.686;5.314;2023-03-14T07:16:17;8.80;99.90
13561;DHT22;6852;51.686;5.314;2023-03-14T07:18:44;8.90;99.90
13561;DHT22;6852;51.686;5.314;2023-03-14T07:21:11;8.80;99.90
13561;DHT22;6852;51.686;5.314;2023-03-14T07:23:38;8.80;99.90
13561;DHT22;6852;51.686;5.314;2023-03-14T07:26:06;8.80;99.90
13561;DHT22;6852;51.686;5.314;2023-03-14T07:28:33;8.80;99.90
13561;DHT22;6852;51.686;5.314;2023-03-14T07:31:00;8.70;99.90
13561;DHT22;6852;51.686;5.314;2023-03-14T07:33:27;8.70;99.90
13561;DHT22;6852;51.686;5.314;2023-03-14T07:35:54;8.80;99.90
13561;DHT22;6852;51.686;5.314;2023-03-14T07:38:21;8.80;99.90
13561;DHT22;6852;51.686;5.314;2023-03-14T07:40:49;8.80;99.90
13561;DHT22;6852;51.686;5.314;2023-03-14T07:43:16;8.70;99.90
13561;DHT22;6852;51.686;5.314;2023-03-14T07:45:46;8.80;99.90
13561;DHT22;6852;51.686;5.314;2023-03-14T07:48:16;8.80;99.90
13561;DHT22;6852;51.686;5.314;2023-03-14T07:50:43;8.70;99.90
13561;DHT22;6852;51.686;5.314;2023-03-14T07:53:10;8.80;99.90
13561;DHT22;6852;51.686;5.314;2023-03-14T07:55:37;8.90;99.90
13561;DHT22;6852;51.686;5.314;2023-03-14T07:58:04;8.80;99.90
13561;DHT22;6852;51.686;5.314;2023-03-14T08:00:30;8.60;99.90
13561;DHT22;6852;51.686;5.314;2023-03-14T08:02:57;8.50;99.90
13561;DHT22;6852;51.686;5.314;2023-03-14T08:05:24;8.50;99.90
13561;DHT22;6852;51.686;5.314;2023-03-14T08:07:51;8.60;99.90
13561;DHT22;6852;51.686;5.314;2023-03-14T08:10:18;8.50;99.90
13561;DHT22;6852;51.686;5.314;2023-03-14T08:12:54;8.60;99.90
13561;DHT22;6852;51.686;5.314;2023-03-14T08:15:23;8.60;99.90
13561;DHT22;6852;51.686;5.314;2023-03-14T08:17:50;8.70;99.90
13561;DHT22;6852;51.686;5.314;2023-03-14T08:20:18;8.80;99.90
13561;DHT22;6852;51.686;5.314;2023-03-14T08:22:45;8.70;99.90
13561;DHT22;6852;51.686;5.314;2023-03-14T08:25:13;8.70;99.90
13561;DHT22;6852;51.686;5.314;2023-03-14T08:27:40;8.70;99.90
13561;DHT22;6852;51.686;5.314;2023-03-14T08:30:10;8.70;99.90
13561;DHT22;6852;51.686;5.314;2023-03-14T08:32:38;8.70;99.90
13561;DHT22;6852;51.686;5.314;2023-03-14T08:35:05;8.70;99.90
13561;DHT22;6852;51.686;5.314;2023-03-14T08:37:33;8.70;99.90
13561;DHT22;6852;51.686;5.314;2023-03-14T08:40:00;8.70;99.90
13561;DHT22;6852;51.686;5.314;2023-03-14T08:42:27;8.80;99.90
13561;DHT22;6852;51.686;5.314;2023-03-14T08:44:54;8.80;99.90
13561;DHT22;6852;51.686;5.314;2023-03-14T08:47:21;8.80;99.90
13561;DHT22;6852;51.686;5.314;2023-03-14T08:49:48;8.70;99.90
13561;DHT22;6852;51.686;5.314;2023-03-14T08:52:15;8.70;99.90
13561;DHT22;6852;51.686;5.314;2023-03-14T08:54:44;8.50;99.90
13561;DHT22;6852;51.686;5.314;2023-03-14T08:57:11;8.50;99.90
13561;DHT22;6852;51.686;5.314;2023-03-14T08:59:38;8.40;99.90
13561;DHT22;6852;51.686;5.314;2023-03-14T09:02:05;8.30;99.90
13561;DHT22;6852;51.686;5.314;2023-03-14T09:04:32;8.40;99.90
13561;DHT22;6852;51.686;5.314;2023-03-14T09:06:59;8.30;99.90
13561;DHT22;6852;51.686;5.314;2023-03-14T09:09:27;8.30;99.90
13561;DHT22;6852;51.686;5.314;2023-03-14T09:11:54;8.20;99.90
13561;DHT22;6852;51.686;5.314;2023-03-14T09:14:21;8.10;99.90
13561;DHT22;6852;51.686;5.314;2023-03-14T09:16:48;8.10;99.90
13561;DHT22;6852;51.686;5.314;2023-03-14T09:19:16;8.00;99.90
13561;DHT22;6852;51.686;5.314;2023-03-14T09:21:43;7.80;99.90
13561;DHT22;6852;51.686;5.314;2023-03-14T09:24:10;7.70;99.90
13561;DHT22;6852;51.686;5.314;2023-03-14T09:26:36;7.40;99.90
13561;DHT22;6852;51.686;5.314;2023-03-14T09:29:04;7.20;99.90
13561;DHT22;6852;51.686;5.314;2023-03-14T09:31:31;7.00;99.90
13561;DHT22;6852;51.686;5.314;2023-03-14T09:33:58;7.00;99.90
13561;DHT22;6852;51.686;5.314;2023-03-14T09:36:25;7.00;99.90
13561;DHT22;6852;51.686;5.314;2023-03-14T09:38:52;7.10;99.90
13561;DHT22;6852;51.686;5.314;2023-03-14T09:41:28;7.30;99.90
13561;DHT22;6852;51.686;5.314;2023-03-14T09:44:13;7.30;99.90
13561;DHT22;6852;51.686;5.314;2023-03-14T09:46:44;7.40;99.90
13561;DHT22;6852;51.686;5.314;2023-03-14T09:49:40;7.50;99.90
13561;DHT22;6852;51.686;5.314;2023-03-14T09:52:22;7.60;99.90
13561;DHT22;6852;51.686;5.314;2023-03-14T09:54:53;7.70;99.90
13561;DHT22;6852;51.686;5.314;2023-03-14T09:57:23;7.80;99.90
13561;DHT22;6852;51.686;5.314;2023-03-14T09:59:54;7.80;99.90
13561;DHT22;6852;51.686;5.314;2023-03-14T10:02:25;7.60;99.90
13561;DHT22;6852;51.686;5.314;2023-03-14T10:04:53;7.60;99.90
13561;DHT22;6852;51.686;5.314;2023-03-14T10:07:30;7.60;99.90
13561;DHT22;6852;51.686;5.314;2023-03-14T10:09:57;7.70;99.90
13561;DHT22;6852;51.686;5.314;2023-03-14T10:12:36;7.60;99.90
13561;DHT22;6852;51.686;5.314;2023-03-14T10:15:07;7.70;99.90
13561;DHT22;6852;51.686;5.314;2023-03-14T10:17:42;7.80;99.90
13561;DHT22;6852;51.686;5.314;2023-03-14T10:20:48;7.70;99.90
13561;DHT22;6852;51.686;5.314;2023-03-14T10:25:44;7.70;99.90
13561;DHT22;6852;51.686;5.314;2023-03-14T10:28:27;7.60;99.90
13561;DHT22;6852;51.686;5.314;2023-03-14T10:30:55;7.40;99.90
13561;DHT22;6852;51.686;5.314;2023-03-14T10:33:25;7.20;99.90
13561;DHT22;6852;51.686;5.314;2023-03-14T10:35:58;7.00;99.90
13561;DHT22;6852;51.686;5.314;2023-03-14T10:38:36;6.90;99.90
13561;DHT22;6852;51.686;5.314;2023-03-14T10:41:24;6.70;99.90
13561;DHT22;6852;51.686;5.314;2023-03-14T10:43:57;6.80;99.90
13561;DHT22;6852;51.686;5.314;2023-03-14T10:46:29;7.00;99.90
13561;DHT22;6852;51.686;5.314;2023-03-14T10:48:56;7.30;99.90
13561;DHT22;6852;51.686;5.314;2023-03-14T10:51:29;7.50;99.90
13561;DHT22;6852;51.686;5.314;2023-03-14T10:54:00;7.80;99.90
13561;DHT22;6852;51.686;5.314;2023-03-14T10:56:33;8.00;99.90
13561;DHT22;6852;51.686;5.314;2023-03-14T10:59:01;8.10;99.90
13561;DHT22;6852;51.686;5.314;2023-03-14T11:21:29;6.90;99.90
13561;DHT22;6852;51.686;5.314;2023-03-14T11:26:51;7.00;99.90
13561;DHT22;6852;51.686;5.314;2023-03-14T11:29:21;7.10;99.90
13561;DHT22;6852;51.686;5.314;2023-03-14T11:31:49;7.30;99.90
13561;DHT22;6852;51.686;5.314;2023-03-14T11:34:34;7.50;99.90
13561;DHT22;6852;51.686;5.314;2023-03-14T11:37:33;7.70;99.90
13561;DHT22;6852;51.686;5.314;2023-03-14T11:40:14;7.80;99.90
13561;DHT22;6852;51.686;5.314;2023-03-14T11:42:43;7.80;99.90
13561;DHT22;6852;51.686;5.314;2023-03-14T11:45:18;7.90;99.90
13561;DHT22;6852;51.686;5.314;2023-03-14T11:47:49;7.80;99.90
13561;DHT22;6852;51.686;5.314;2023-03-14T11:50:18;7.60;99.90
13561;DHT22;6852;51.686;5.314;2023-03-14T11:55:35;6.80;99.90
13561;DHT22;6852;51.686;5.314;2023-03-14T11:58:29;6.90;99.90
13561;DHT22;6852;51.686;5.314;2023-03-14T12:00:58;7.10;99.90
13561;DHT22;6852;51.686;5.314;2023-03-14T12:08:54;7.50;99.90
13561;DHT22;6852;51.686;5.314;2023-03-14T12:12:00;7.70;99.90
13561;DHT22;6852;51.686;5.314;2023-03-14T12:14:32;8.10;99.90
13561;DHT22;6852;51.686;5.314;2023-03-14T12:17:06;8.60;99.90
13561;DHT22;6852;51.686;5.314;2023-03-14T12:19:36;8.70;99.90
13561;DHT22;6852;51.686;5.314;2023-03-14T12:25:01;9.10;99.90
13561;DHT22;6852;51.686;5.314;2023-03-14T12:27:44;9.30;99.90
13561;DHT22;6852;51.686;5.314;2023-03-14T12:30:36;9.70;99.90
13561;DHT22;6852;51.686;5.314;2023-03-14T12:35:50;10.90;99.90
13561;DHT22;6852;51.686;5.314;2023-03-14T12:43:30;9.90;99.90
13561;DHT22;6852;51.686;5.314;2023-03-14T12:48:40;10.20;99.90
13561;DHT22;6852;51.686;5.314;2023-03-14T12:51:20;10.50;99.90
13561;DHT22;6852;51.686;5.314;2023-03-14T12:59:28;10.60;99.90
13561;DHT22;6852;51.686;5.314;2023-03-14T13:02:01;10.60;99.90
13561;DHT22;6852;51.686;5.314;2023-03-14T13:04:35;10.50;99.90
13561;DHT22;6852;51.686;5.314;2023-03-14T13:07:11;10.10;99.90
13561;DHT22;6852;51.686;5.314;2023-03-14T13:12:51;10.50;99.90
13561;DHT22;6852;51.686;5.314;2023-03-14T13:17:48;10.90;99.90
13561;DHT22;6852;51.686;5.314;2023-03-14T13:20:30;10.40;99.90
13561;DHT22;6852;51.686;5.314;2023-03-14T13:22:58;10.40;99.90
13561;DHT22;6852;51.686;5.314;2023-03-14T13:25:30;10.30;99.90
13561;DHT22;6852;51.686;5.314;2023-03-14T13:27:58;10.80;99.90
13561;DHT22;6852;51.686;5.314;2023-03-14T13:30:49;11.10;99.90
13561;DHT22;6852;51.686;5.314;2023-03-14T13:33:19;10.40;99.90
13561;DHT22;6852;51.686;5.314;2023-03-14T13:36:08;10.30;99.90
13561;DHT22;6852;51.686;5.314;2023-03-14T13:38:36;10.10;99.90
13561;DHT22;6852;51.686;5.314;2023-03-14T13:41:07;10.40;99.90
13561;DHT22;6852;51.686;5.314;2023-03-14T13:43:39;10.90;99.90
13561;DHT22;6852;51.686;5.314;2023-03-14T13:46:20;11.70;99.90
13561;DHT22;6852;51.686;5.314;2023-03-14T13:49:10;10.70;99.90
13561;DHT22;6852;51.686;5.314;2023-03-14T13:51:39;10.30;99.90
13561;DHT22;6852;51.686;5.314;2023-03-14T13:54:20;10.20;99.90
13561;DHT22;6852;51.686;5.314;2023-03-14T13:56:47;9.90;99.90
13561;DHT22;6852;51.686;5.314;2023-03-14T13:59:25;9.80;99.90
13561;DHT22;6852;51.686;5.314;2023-03-14T14:01:53;9.80;99.90
13561;DHT22;6852;51.686;5.314;2023-03-14T14:04:24;9.80;99.90
13561;DHT22;6852;51.686;5.314;2023-03-14T14:06:58;9.90;99.90
13561;DHT22;6852;51.686;5.314;2023-03-14T14:09:31;9.70;99.90
13561;DHT22;6852;51.686;5.314;2023-03-14T14:12:26;9.60;99.90
13561;DHT22;6852;51.686;5.314;2023-03-14T14:15:07;9.50;99.90
13561;DHT22;6852;51.686;5.314;2023-03-14T14:17:51;9.60;99.90
13561;DHT22;6852;51.686;5.314;2023-03-14T14:22:49;9.60;99.90
13561;DHT22;6852;51.686;5.314;2023-03-14T14:25:16;9.80;99.90
13561;DHT22;6852;51.686;5.314;2023-03-14T14:27:48;10.00;99.90
13561;DHT22;6852;51.686;5.314;2023-03-14T14:32:47;9.80;99.90
13561;DHT22;6852;51.686;5.314;2023-03-14T14:37:51;9.80;99.90
13561;DHT22;6852;51.686;5.314;2023-03-14T14:40:27;9.60;99.90
13561;DHT22;6852;51.686;5.314;2023-03-14T14:42:54;9.50;99.90
13561;DHT22;6852;51.686;5.314;2023-03-14T14:45:23;9.00;99.90
13561;DHT22;6852;51.686;5.314;2023-03-14T14:47:57;9.00;99.90
13561;DHT22;6852;51.686;5.314;2023-03-14T14:50:44;9.20;99.90
13561;DHT22;6852;51.686;5.314;2023-03-14T14:53:35;9.10;99.90
13561;DHT22;6852;51.686;5.314;2023-03-14T14:56:21;8.90;99.90
13561;DHT22;6852;51.686;5.314;2023-03-14T14:58:59;8.70;99.90
13561;DHT22;6852;51.686;5.314;2023-03-14T15:01:40;8.60;99.90
13561;DHT22;6852;51.686;5.314;2023-03-14T15:04:11;8.80;99.90
13561;DHT22;6852;51.686;5.314;2023-03-14T15:06:43;8.80;99.90
13561;DHT22;6852;51.686;5.314;2023-03-14T15:09:11;8.80;99.90
13561;DHT22;6852;51.686;5.314;2023-03-14T15:11:38;8.70;99.90
13561;DHT22;6852;51.686;5.314;2023-03-14T15:14:05;8.70;99.90
13561;DHT22;6852;51.686;5.314;2023-03-14T15:16:33;8.30;99.90
13561;DHT22;6852;51.686;5.314;2023-03-14T15:19:03;8.30;99.90
13561;DHT22;6852;51.686;5.314;2023-03-14T15:21:49;8.10;99.90
13561;DHT22;6852;51.686;5.314;2023-03-14T15:24:15;8.30;99.90
13561;DHT22;6852;51.686;5.314;2023-03-14T15:26:42;8.40;99.90
13561;DHT22;6852;51.686;5.314;2023-03-14T15:29:11;8.30;99.90
13561;DHT22;6852;51.686;5.314;2023-03-14T15:31:39;8.20;99.90
13561;DHT22;6852;51.686;5.314;2023-03-14T15:34:07;8.10;99.90
13561;DHT22;6852;51.686;5.314;2023-03-14T15:36:35;8.10;99.90
13561;DHT22;6852;51.686;5.314;2023-03-14T15:39:04;8.20;99.90
13561;DHT22;6852;51.686;5.314;2023-03-14T15:41:32;8.10;99.90
13561;DHT22;6852;51.686;5.314;2023-03-14T15:43:59;8.10;99.90
13561;DHT22;6852;51.686;5.314;2023-03-14T15:46:25;8.10;99.90
13561;DHT22;6852;51.686;5.314;2023-03-14T15:48:56;7.70;99.90
13561;DHT22;6852;51.686;5.314;2023-03-14T15:51:22;7.80;99.90
13561;DHT22;6852;51.686;5.314;2023-03-14T15:53:49;7.80;99.90
13561;DHT22;6852;51.686;5.314;2023-03-14T15:56:19;7.80;99.90
13561;DHT22;6852;51.686;5.314;2023-03-14T15:58:46;7.80;99.90
13561;DHT22;6852;51.686;5.314;2023-03-14T16:01:14;7.90;99.90
13561;DHT22;6852;51.686;5.314;2023-03-14T16:03:45;7.70;99.90
13561;DHT22;6852;51.686;5.314;2023-03-14T16:06:13;7.70;99.90
13561;DHT22;6852;51.686;5.314;2023-03-14T16:08:41;7.80;99.90
13561;DHT22;6852;51.686;5.314;2023-03-14T16:11:09;7.90;99.90
13561;DHT22;6852;51.686;5.314;2023-03-14T16:13:36;7.60;99.90
13561;DHT22;6852;51.686;5.314;2023-03-14T16:16:05;7.50;99.90
13561;DHT22;6852;51.686;5.314;2023-03-14T16:18:35;7.40;99.90
13561;DHT22;6852;51.686;5.314;2023-03-14T16:21:10;7.60;99.90
13561;DHT22;6852;51.686;5.314;2023-03-14T16:23:37;7.60;99.90
13561;DHT22;6852;51.686;5.314;2023-03-14T16:26:07;7.40;99.90
13561;DHT22;6852;51.686;5.314;2023-03-14T16:28:34;7.40;99.90
13561;DHT22;6852;51.686;5.314;2023-03-14T16:31:10;7.50;99.90
13561;DHT22;6852;51.686;5.314;2023-03-14T16:33:38;7.60;99.90
13561;DHT22;6852;51.686;5.314;2023-03-14T16:36:07;7.50;99.90
13561;DHT22;6852;51.686;5.314;2023-03-14T16:38:35;7.50;99.90
13561;DHT22;6852;51.686;5.314;2023-03-14T16:41:13;7.60;99.90
13561;DHT22;6852;51.686;5.314;2023-03-14T16:43:41;7.50;99.90
13561;DHT22;6852;51.686;5.314;2023-03-14T16:46:13;7.50;99.90
13561;DHT22;6852;51.686;5.314;2023-03-14T16:48:40;7.60;99.90
13561;DHT22;6852;51.686;5.314;2023-03-14T16:51:06;7.60;99.90
13561;DHT22;6852;51.686;5.314;2023-03-14T16:53:33;7.60;99.90
13561;DHT22;6852;51.686;5.314;2023-03-14T16:56:00;7.60;99.90
13561;DHT22;6852;51.686;5.314;2023-03-14T16:58:27;7.60;99.90
13561;DHT22;6852;51.686;5.314;2023-03-14T17:00:57;7.60;99.90
13561;DHT22;6852;51.686;5.314;2023-03-14T17:03:24;7.40;99.90
13561;DHT22;6852;51.686;5.314;2023-03-14T17:05:53;7.40;99.90
13561;DHT22;6852;51.686;5.314;2023-03-14T17:08:20;7.50;99.90
13561;DHT22;6852;51.686;5.314;2023-03-14T17:10:47;7.40;99.90
13561;DHT22;6852;51.686;5.314;2023-03-14T17:13:14;7.40;99.90
13561;DHT22;6852;51.686;5.314;2023-03-14T17:15:45;7.30;99.90
13561;DHT22;6852;51.686;5.314;2023-03-14T17:18:12;7.30;99.90
13561;DHT22;6852;51.686;5.314;2023-03-14T17:20:39;7.30;99.90
13561;DHT22;6852;51.686;5.314;2023-03-14T17:23:07;7.20;99.90